Time,TemperatureF,DewpointF,PressureIn,WindDirection,WindDirectionDegrees,WindSpeedMPH,WindSpeedGustMPH,Humidity,HourlyPrecipIn,Conditions,Clouds,dailyrainin,SoftwareType,DateUTC
2014-12-25 00:00:00,56.7,56.7,29.77,SSE,158,0.0,0.0,100,0.00,CLR,CLR,0.00,WeatherDisplay:10.33,2014-12-25 08:00:00,
2014-12-25 00:15:00,56.9,56.9,29.77,SSE,158,0.0,0.0,100,0.00,CLR,CLR,0.00,WeatherDisplay:10.33,2014-12-25 08:15:00,
2014-12-25 00:30:00,57.2,57.2,29.75,SSE,158,0.0,0.0,100,0.00,CLR,CLR,0.00,WeatherDisplay:10.33,2014-12-25 08:30:00,
2014-12-25 00:45:00,56.7,56.7,29.75,West,266,0.0,0.0,100,0.00,CLR,CLR,0.00,WeatherDisplay:10.33,2014-12-25 08:45:00,
2014-12-25 01:00:00,56.5,56.5,29.75,WNW,292,0.0,0.0,100,0.00,CLR,CLR,0.00,WeatherDisplay:10.33,2014-12-25 09:00:00,
2014-12-25 01:15:00,56.9,56.9,29.75,WNW,292,0.0,0.0,100,0.00,CLR,CLR,0.00,WeatherDisplay:10.33,2014-12-25 09:15:00,
2014-12-25 01:30:00,58.4,58.4,29.75,WNW,292,0.0,0.0,100,0.00,CLR,CLR,0.00,WeatherDisplay:10.33,2014-12-25 09:30:00,
2014-12-25 01:45:00,58.7,58.7,29.75,WNW,292,0.0,0.0,100,0.00,CLR,CLR,0.00,WeatherDisplay:10.33,2014-12-25 09:45:00,
2014-12-25 02:00:00,57.0,57.0,29.75,WNW,292,0.0,0.0,100,0.00,CLR,CLR,0.00,WeatherDisplay:10.33,2014-12-25 10:00:00,
2014-12-25 02:15:00,57.3,57.3,29.75,WNW,286,0.0,0.0,100,0.00,CLR,CLR,0.00,WeatherDisplay:10.33,2014-12-25 10:15:00,
2014-12-25 02:30:00,59.2,59.2,29.74,SSW,211,0.0,3.0,100,0.00,CLR,CLR,0.00,WeatherDisplay:10.33,2014-12-25 10:30:00,
2014-12-25 02:45:00,58.9,58.9,29.74,SSW,202,0.0,0.0,100,0.00,CLR,CLR,0.00,WeatherDisplay:10.33,2014-12-25 10:45:00,
2014-12-25 03:00:00,58.7,58.7,29.74,SSW,202,0.0,0.0,100,0.00,CLR,CLR,0.00,WeatherDisplay:10.33,2014-12-25 11:00:00,
2014-12-25 03:15:00,59.6,59.6,29.73,SSW,202,0.0,3.0,100,0.00,CLR,CLR,0.00,WeatherDisplay:10.33,2014-12-25 11:15:00,
2014-12-25 03:30:00,59.9,59.9,29.73,SSW,202,0.0,5.0,100,0.00,CLR,CLR,0.00,WeatherDisplay:10.33,2014-12-25 11:30:00,
2014-12-25 03:45:00,60.2,60.2,29.73,SW,216,2.0,10.0,100,0.00,CLR,CLR,0.00,WeatherDisplay:10.33,2014-12-25 11:45:00,
2014-12-25 04:00:00,59.5,59.5,29.73,WSW,240,5.0,9.0,100,0.00,CLR,CLR,0.00,WeatherDisplay:10.33,2014-12-25 12:00:00,
2014-12-25 04:15:00,59.2,59.2,29.73,SW,235,5.0,10.0,100,0.00,CLR,CLR,0.00,WeatherDisplay:10.33,2014-12-25 12:15:00,
2014-12-25 04:30:00,59.0,59.0,29.74,WSW,249,5.0,10.0,100,0.00,CLR,CLR,0.00,WeatherDisplay:10.33,2014-12-25 12:30:00,
2014-12-25 04:45:00,58.7,58.7,29.73,SW,234,3.0,12.0,100,0.00,CLR,CLR,0.00,WeatherDisplay:10.33,2014-12-25 12:45:00,
2014-12-25 05:00:00,58.6,58.6,29.73,SW,233,3.0,10.0,100,0.00,CLR,CLR,0.00,WeatherDisplay:10.33,2014-12-25 13:00:00,
2014-12-25 05:15:00,58.4,58.4,29.74,WSW,238,0.0,10.0,100,0.00,CLR,CLR,0.00,WeatherDisplay:10.33,2014-12-25 13:15:00,
2014-12-25 05:30:00,58.3,58.3,29.75,SW,231,0.0,6.0,100,0.00,CLR,CLR,0.00,WeatherDisplay:10.33,2014-12-25 13:30:00,
2014-12-25 05:45:00,58.3,58.3,29.75,West,270,0.0,0.0,100,0.00,CLR,CLR,0.00,WeatherDisplay:10.33,2014-12-25 13:45:00,
2014-12-25 06:00:00,57.8,57.8,29.75,West,270,0.0,0.0,100,0.00,OVC,OVC,0.00,WeatherDisplay:10.33,2014-12-25 14:00:00,
2014-12-25 06:15:00,57.1,57.1,29.75,West,270,0.0,0.0,100,0.00,OVC,OVC,0.00,WeatherDisplay:10.33,2014-12-25 14:15:00,
2014-12-25 06:30:00,56.5,56.5,29.75,West,259,0.0,0.0,100,0.00,OVC,OVC,0.00,WeatherDisplay:10.33,2014-12-25 14:30:00,
2014-12-25 06:45:00,56.2,56.2,29.74,South,180,0.0,0.0,100,0.00,OVC,OVC,0.00,WeatherDisplay:10.33,2014-12-25 14:45:00,
2014-12-25 07:00:00,55.6,55.6,29.75,South,180,0.0,0.0,100,0.00,OVC,OVC,0.00,WeatherDisplay:10.33,2014-12-25 15:00:00,
2014-12-25 07:15:00,54.8,54.8,29.75,South,180,0.0,0.0,100,0.00,BKN,BKN,0.00,WeatherDisplay:10.33,2014-12-25 15:15:00,
2014-12-25 07:30:00,54.4,54.4,29.75,South,180,0.0,0.0,100,0.00,BKN,BKN,0.00,WeatherDisplay:10.33,2014-12-25 15:30:00,
2014-12-25 07:45:00,54.8,54.8,29.76,South,180,0.0,0.0,100,0.00,SCT,SCT,0.00,WeatherDisplay:10.33,2014-12-25 15:45:00,
2014-12-25 08:00:00,55.7,55.7,29.77,South,180,0.0,0.0,100,0.00,BKN,BKN,0.00,WeatherDisplay:10.33,2014-12-25 16:00:00,
2014-12-25 08:15:00,56.6,56.6,29.77,South,180,0.0,0.0,100,0.00,SCT,SCT,0.00,WeatherDisplay:10.33,2014-12-25 16:15:00,
2014-12-25 08:30:00,57.8,57.8,29.78,South,180,0.0,0.0,100,0.00,BKN,BKN,0.00,WeatherDisplay:10.33,2014-12-25 16:30:00,
2014-12-25 08:45:00,58.6,58.6,29.78,South,180,0.0,0.0,100,0.00,OVC,OVC,0.00,WeatherDisplay:10.33,2014-12-25 16:45:00,
2014-12-25 09:00:00,59.4,59.4,29.79,South,180,0.0,1.0,100,0.00,CLR,CLR,0.00,WeatherDisplay:10.33,2014-12-25 17:00:00,
2014-12-25 09:15:00,61.0,61.0,29.80,South,180,0.0,0.0,100,0.00,CLR,CLR,0.00,WeatherDisplay:10.33,2014-12-25 17:15:00,
2014-12-25 09:30:00,63.1,63.1,29.80,South,180,0.0,2.0,100,0.00,CLR,CLR,0.00,WeatherDisplay:10.33,2014-12-25 17:30:00,
2014-12-25 09:45:00,62.6,62.6,29.80,South,180,0.0,1.0,100,0.00,OVC,OVC,0.00,WeatherDisplay:10.33,2014-12-25 17:45:00,
2014-12-25 10:00:00,62.4,62.4,29.80,South,180,0.0,2.0,100,0.00,OVC,OVC,0.00,WeatherDisplay:10.33,2014-12-25 18:00:00,
2014-12-25 10:15:00,62.1,62.1,29.79,South,186,0.0,5.0,100,0.00,OVC,OVC,0.00,WeatherDisplay:10.33,2014-12-25 18:15:00,
2014-12-25 10:30:00,62.0,62.0,29.78,South,171,0.0,2.0,100,0.00,OVC,OVC,0.00,WeatherDisplay:10.33,2014-12-25 18:30:00,
2014-12-25 10:45:00,62.3,62.3,29.77,SSE,163,3.0,6.0,100,0.00,OVC,OVC,0.00,WeatherDisplay:10.33,2014-12-25 18:45:00,
2014-12-25 11:00:00,63.9,63.9,29.76,South,185,3.0,7.0,100,0.00,CLR,CLR,0.00,WeatherDisplay:10.33,2014-12-25 19:00:00,
2014-12-25 11:15:00,65.0,65.0,29.76,South,191,2.0,12.0,100,0.00,CLR,CLR,0.00,WeatherDisplay:10.33,2014-12-25 19:15:00,
2014-12-25 11:30:00,64.4,64.4,29.76,SSE,161,2.0,5.0,100,0.00,CLR,CLR,0.00,WeatherDisplay:10.33,2014-12-25 19:30:00,
2014-12-25 11:45:00,64.2,64.2,29.75,South,189,1.0,5.0,100,0.00,OVC,OVC,0.00,WeatherDisplay:10.33,2014-12-25 19:45:00,
2014-12-25 12:00:00,61.8,61.8,29.76,NE,49,0.0,7.0,100,0.00,OVC,OVC,0.00,WeatherDisplay:10.33,2014-12-25 20:00:00,
2014-12-25 12:15:00,60.8,60.8,29.75,NNE,23,0.0,3.0,100,0.00,OVC,OVC,0.00,WeatherDisplay:10.33,2014-12-25 20:15:00,
2014-12-25 12:30:00,60.5,60.5,29.74,NE,45,0.0,1.0,100,0.00,OVC,OVC,0.00,WeatherDisplay:10.33,2014-12-25 20:30:00,
2014-12-25 12:45:00,60.9,60.9,29.75,NE,45,0.0,1.0,100,0.00,OVC,OVC,0.00,WeatherDisplay:10.33,2014-12-25 20:45:00,
2014-12-25 13:00:00,62.0,62.0,29.73,NE,45,0.0,0.0,100,0.00,CLR,CLR,0.00,WeatherDisplay:10.33,2014-12-25 21:00:00,
2014-12-25 13:15:00,63.2,63.2,29.72,NE,45,0.0,1.0,100,0.00,CLR,CLR,0.00,WeatherDisplay:10.33,2014-12-25 21:15:00,
2014-12-25 13:30:00,65.1,65.1,29.72,NE,45,0.0,0.0,100,0.00,CLR,CLR,0.00,WeatherDisplay:10.33,2014-12-25 21:30:00,
2014-12-25 13:45:00,66.1,66.1,29.72,NE,45,0.0,1.0,100,0.00,CLR,CLR,0.00,WeatherDisplay:10.33,2014-12-25 21:45:00,
2014-12-25 14:00:00,66.4,66.4,29.72,NE,45,0.0,0.0,100,0.00,CLR,CLR,0.00,WeatherDisplay:10.33,2014-12-25 22:00:00,
2014-12-25 14:15:00,67.4,67.4,29.72,North,352,0.0,3.0,100,0.00,CLR,CLR,0.00,WeatherDisplay:10.33,2014-12-25 22:15:00,
2014-12-25 14:30:00,67.9,67.9,29.71,SW,217,0.0,6.0,100,0.00,CLR,CLR,0.00,WeatherDisplay:10.33,2014-12-25 22:30:00,
2014-12-25 14:45:00,67.4,67.4,29.71,SW,222,6.0,10.0,100,0.00,CLR,CLR,0.00,WeatherDisplay:10.33,2014-12-25 22:45:00,
2014-12-25 15:00:00,66.3,66.3,29.72,SW,221,5.0,13.0,100,0.00,CLR,CLR,0.00,WeatherDisplay:10.33,2014-12-25 23:00:00,
2014-12-25 15:15:00,66.4,66.4,29.72,WSW,249,2.0,9.0,100,0.00,CLR,CLR,0.00,WeatherDisplay:10.33,2014-12-25 23:15:00,
2014-12-25 15:30:00,65.8,65.8,29.72,SW,236,1.0,10.0,100,0.00,CLR,CLR,0.00,WeatherDisplay:10.33,2014-12-25 23:30:00,
2014-12-25 15:45:00,65.2,65.2,29.72,WSW,240,6.0,10.0,100,0.00,CLR,CLR,0.00,WeatherDisplay:10.33,2014-12-25 23:45:00,
2014-12-25 16:00:00,64.5,64.5,29.73,SW,226,2.0,10.0,100,0.00,CLR,CLR,0.00,WeatherDisplay:10.33,2014-12-26 00:00:00,
2014-12-25 16:15:00,63.7,63.7,29.73,SW,223,0.0,7.0,100,0.00,BKN,BKN,0.00,WeatherDisplay:10.33,2014-12-26 00:15:00,
2014-12-25 16:30:00,62.9,62.9,29.74,SW,234,0.0,8.0,100,0.00,BKN,BKN,0.00,WeatherDisplay:10.33,2014-12-26 00:30:00,
2014-12-25 16:45:00,61.7,61.7,29.75,WSW,249,0.0,5.0,100,0.00,OVC,OVC,0.00,WeatherDisplay:10.33,2014-12-26 00:45:00,
2014-12-25 17:00:00,60.5,60.5,29.75,WSW,256,0.0,3.0,100,0.00,,,0.00,WeatherDisplay:10.33,2014-12-26 01:00:00,
2014-12-25 17:15:00,59.9,59.9,29.76,WSW,247,0.0,3.0,100,0.00,CLR,CLR,0.00,WeatherDisplay:10.33,2014-12-26 01:15:00,
2014-12-25 17:30:00,58.9,58.9,29.77,WSW,247,0.0,0.0,100,0.00,CLR,CLR,0.00,WeatherDisplay:10.33,2014-12-26 01:30:00,
2014-12-25 17:45:00,57.6,57.6,29.78,WSW,247,0.0,0.0,100,0.00,CLR,CLR,0.00,WeatherDisplay:10.33,2014-12-26 01:45:00,
2014-12-25 18:00:00,57.2,57.2,29.79,WSW,247,0.0,0.0,100,0.00,CLR,CLR,0.00,WeatherDisplay:10.33,2014-12-26 02:00:00,
2014-12-25 18:15:00,56.0,56.0,29.79,WSW,247,0.0,0.0,100,0.00,CLR,CLR,0.00,WeatherDisplay:10.33,2014-12-26 02:15:00,
2014-12-25 18:30:00,55.7,55.7,29.79,WSW,247,0.0,0.0,100,0.00,CLR,CLR,0.00,WeatherDisplay:10.33,2014-12-26 02:30:00,
2014-12-25 18:45:00,54.6,54.6,29.80,WSW,247,0.0,0.0,100,0.00,CLR,CLR,0.00,WeatherDisplay:10.33,2014-12-26 02:45:00,
2014-12-25 19:00:00,53.3,53.3,29.81,WSW,247,0.0,0.0,100,0.00,CLR,CLR,0.00,WeatherDisplay:10.33,2014-12-26 03:00:00,